Overview Statistics Trail Chart Weather Telemetry Raw packets
 

This is the latest recevied weather packets stored in our database for station/object S56OA-13. If no packets are shown the sender has not sent any weather packets the latest 10 day(s).

<< 13 14 15 16 17 18 19 >>
Time Temp. Humidity Pressure Rain* Wind** Luminosity Snow
1787987431 23.89° C 42% 889.1 hPa - - - -
1787985629 23.33° C 41% 888.4 hPa - - - -
1787983828 21.67° C 42% 883.2 hPa - - - -
1787982027 21.11° C 42% 880.6 hPa - - - -
1787980225 21.11° C 42% 880 hPa - - - -
1787978424 20.56° C 42% 880 hPa - - - -
1787976623 20.56° C 43% 880.3 hPa - - - -
1787974822 21.11° C 42% 881.2 hPa - - - -
1787973020 21.11° C 42% 881.5 hPa - - - -
1787971219 21.11° C 42% 881.5 hPa - - - -
1787969418 21.67° C 41% 881.2 hPa - - - -
1787967617 20° C 42% 878.1 hPa - - - -
1787965816 20.56° C 42% 878.5 hPa - - - -
1787964050 21.11° C 42% 880.3 hPa - - - -
1787964015 21.11° C 42% 880.3 hPa - - - -
1787962213 21.11° C 42% 881.2 hPa - - - -
1787960412 21.67° C 42% 881.4 hPa - - - -
1787958706 21.67° C 42% 882.8 hPa - - - -
1787958611 21.67° C 42% 882.8 hPa - - - -
1787954950 20.56° C 43% 878.9 hPa - - - -
1787953121 21.67° C 42% 881.8 hPa - - - -
1787951320 21.67° C 42% 883.5 hPa - - - -
1787949519 21.11° C 42% 882.1 hPa - - - -
1787947720 21.11° C 42% 881.1 hPa - - - -
1787945916 21.67° C 41% 881.1 hPa - - - -

* Rain since midnight (hover to see other rain measurements)
** Current wind speed in m/s (hover to see current wind gust speed)